createdAt,value
2022-11-06T00:01:49.690Z,100.00
2022-11-06T00:04:17.133Z,100.00
2022-11-06T00:06:50.144Z,100.00
2022-11-06T00:09:21.528Z,100.00
2022-11-06T00:11:50.426Z,100.00
2022-11-06T00:14:18.812Z,100.00
2022-11-06T00:16:47.718Z,100.00
2022-11-06T00:19:16.059Z,100.00
2022-11-06T00:21:44.016Z,100.00
2022-11-06T00:24:14.258Z,100.00
2022-11-06T00:26:42.196Z,100.00
2022-11-06T00:29:14.655Z,100.00
2022-11-06T00:31:42.731Z,100.00
2022-11-06T00:34:11.044Z,100.00
2022-11-06T00:36:38.703Z,100.00
2022-11-06T00:39:06.176Z,100.00
2022-11-06T00:41:33.537Z,100.00
2022-11-06T00:44:02.930Z,100.00
2022-11-06T00:46:30.517Z,100.00
2022-11-06T00:48:58.237Z,100.00
2022-11-06T00:51:32.276Z,100.00
2022-11-06T00:54:05.820Z,100.00
2022-11-06T00:56:34.087Z,100.00
2022-11-06T00:59:03.800Z,100.00
2022-11-06T01:01:33.651Z,100.00
2022-11-06T01:04:04.550Z,100.00
2022-11-06T01:06:37.565Z,100.00
2022-11-06T01:09:06.013Z,100.00
2022-11-06T01:12:06.624Z,100.00
2022-11-06T01:14:27.205Z,100.00
2022-11-06T01:16:54.547Z,100.00
2022-11-06T01:19:24.725Z,100.00
2022-11-06T01:21:53.614Z,100.00
2022-11-06T01:24:27.475Z,100.00
2022-11-06T01:27:24.977Z,100.00
2022-11-06T01:29:43.741Z,100.00
2022-11-06T01:32:11.307Z,100.00
2022-11-06T01:34:38.714Z,100.00
2022-11-06T01:37:10.388Z,100.00
2022-11-06T01:39:41.564Z,100.00
2022-11-06T01:42:12.775Z,100.00
2022-11-06T01:44:43.147Z,100.00
2022-11-06T01:47:29.822Z,100.00
2022-11-06T01:50:01.810Z,100.00
2022-11-06T01:52:33.503Z,100.00
2022-11-06T01:55:14.769Z,100.00
2022-11-06T01:57:42.843Z,100.00
2022-11-06T02:00:10.928Z,100.00
2022-11-06T02:02:39.665Z,100.00
2022-11-06T02:05:07.839Z,100.00
2022-11-06T02:07:36.162Z,100.00
2022-11-06T02:10:04.709Z,100.00
2022-11-06T02:12:52.187Z,100.00
2022-11-06T02:15:37.436Z,100.00
2022-11-06T02:18:22.243Z,100.00
2022-11-06T02:21:28.356Z,100.00
2022-11-06T02:24:20.316Z,100.00
2022-11-06T02:27:20.466Z,100.00
2022-11-06T02:30:11.766Z,100.00
2022-11-06T02:32:59.413Z,100.00
2022-11-06T02:35:42.913Z,100.00
2022-11-06T02:38:16.648Z,100.00
2022-11-06T02:40:50.656Z,100.00
2022-11-06T02:43:21.300Z,100.00
2022-11-06T02:45:56.143Z,100.00
2022-11-06T02:48:32.444Z,100.00
2022-11-06T02:51:03.224Z,100.00
2022-11-06T02:53:32.512Z,100.00
2022-11-06T02:56:07.439Z,100.00
2022-11-06T02:58:49.194Z,100.00
2022-11-06T03:01:34.706Z,100.00
2022-11-06T03:04:07.236Z,100.00
2022-11-06T03:06:41.153Z,100.00
2022-11-06T03:09:14.922Z,100.00
2022-11-06T03:11:42.634Z,100.00
2022-11-06T03:14:25.273Z,100.00
2022-11-06T03:17:11.544Z,100.00
2022-11-06T03:19:48.152Z,100.00
2022-11-06T03:22:20.162Z,100.00
2022-11-06T03:24:56.084Z,100.00
2022-11-06T03:27:32.714Z,100.00
2022-11-06T03:30:13.846Z,100.00
2022-11-06T03:32:49.544Z,100.00
2022-11-06T03:35:51.276Z,100.00
2022-11-06T03:38:36.119Z,100.00
2022-11-06T03:41:20.496Z,100.00
2022-11-06T03:43:50.834Z,100.00
2022-11-06T03:46:25.341Z,100.00
2022-11-06T03:49:11.016Z,100.00
2022-11-06T03:51:56.957Z,100.00
2022-11-06T03:54:29.566Z,100.00
2022-11-06T03:57:03.286Z,100.00
2022-11-06T03:59:37.556Z,100.00
2022-11-06T04:02:05.084Z,100.00
2022-11-06T04:04:54.090Z,100.00
2022-11-06T04:07:26.129Z,100.00
2022-11-06T04:10:18.824Z,100.00
2022-11-06T04:13:06.524Z,100.00
2022-11-06T04:15:41.330Z,100.00
2022-11-06T04:18:18.140Z,100.00
2022-11-06T04:21:22.723Z,100.00
2022-11-06T04:24:21.609Z,100.00
2022-11-06T04:27:22.952Z,100.00
2022-11-06T04:30:01.045Z,100.00
2022-11-06T04:32:46.711Z,100.00
2022-11-06T04:35:38.047Z,100.00
2022-11-06T04:38:26.101Z,100.00
2022-11-06T04:41:06.513Z,100.00
2022-11-06T04:43:50.063Z,100.00
2022-11-06T04:46:25.092Z,100.00
2022-11-06T04:48:53.466Z,100.00
2022-11-06T04:51:25.135Z,100.00
2022-11-06T04:53:53.862Z,100.00
2022-11-06T04:56:31.919Z,100.00
2022-11-06T04:59:01.443Z,100.00
2022-11-06T05:01:28.886Z,100.00
2022-11-06T05:03:56.487Z,100.00
2022-11-06T05:06:29.790Z,100.00
2022-11-06T05:08:59.306Z,100.00
2022-11-06T05:11:26.664Z,100.00
2022-11-06T05:13:54.596Z,100.00
2022-11-06T05:16:21.997Z,100.00
2022-11-06T05:18:49.274Z,100.00
2022-11-06T05:21:34.954Z,100.00
2022-11-06T05:24:02.259Z,100.00
2022-11-06T05:26:29.683Z,100.00
2022-11-06T05:28:56.988Z,100.00
2022-11-06T05:31:25.442Z,100.00
2022-11-06T05:33:52.840Z,100.00
2022-11-06T05:36:21.632Z,100.00
2022-11-06T05:38:48.936Z,100.00
2022-11-06T05:41:16.194Z,100.00
2022-11-06T05:43:43.916Z,100.00
2022-11-06T05:46:29.649Z,100.00
2022-11-06T05:48:58.623Z,100.00
2022-11-06T05:51:26.019Z,100.00
2022-11-06T05:53:53.308Z,100.00
2022-11-06T05:56:20.758Z,100.00
2022-11-06T05:58:48.048Z,100.00
2022-11-06T06:01:15.694Z,100.00
2022-11-06T06:03:43.378Z,100.00
2022-11-06T06:06:10.725Z,100.00
2022-11-06T06:08:38.082Z,100.00
2022-11-06T06:11:08.527Z,100.00
2022-11-06T06:13:37.633Z,100.00
2022-11-06T06:16:05.288Z,100.00
2022-11-06T06:18:32.537Z,100.00
2022-11-06T06:21:00.314Z,100.00
2022-11-06T06:23:27.553Z,100.00
2022-11-06T06:25:55.022Z,100.00
2022-11-06T06:28:22.321Z,100.00
2022-11-06T06:30:49.668Z,100.00
2022-11-06T06:33:17.010Z,100.00
2022-11-06T06:35:45.022Z,100.00
2022-11-06T06:38:12.648Z,100.00
2022-11-06T06:40:40.217Z,100.00
2022-11-06T06:43:07.454Z,100.00
2022-11-06T06:45:35.287Z,100.00
2022-11-06T06:48:04.735Z,100.00
2022-11-06T06:50:32.707Z,98.18
2022-11-06T06:53:00.528Z,95.42
2022-11-06T06:55:28.000Z,92.96
2022-11-06T06:58:01.908Z,90.97
2022-11-06T07:00:29.914Z,89.24
2022-11-06T07:02:58.492Z,87.65
2022-11-06T07:05:25.796Z,86.93
2022-11-06T07:07:53.216Z,86.23
2022-11-06T07:10:20.824Z,85.20
2022-11-06T07:12:48.380Z,84.24
2022-11-06T07:15:15.895Z,83.40
2022-11-06T07:17:43.206Z,83.69
2022-11-06T07:20:11.125Z,83.17
2022-11-06T07:22:38.450Z,82.10
2022-11-06T07:25:06.580Z,81.23
2022-11-06T07:27:33.996Z,80.92
2022-11-06T07:30:01.473Z,79.87
2022-11-06T07:32:29.113Z,79.34
2022-11-06T07:34:56.372Z,79.47
2022-11-06T07:37:23.710Z,79.55
2022-11-06T07:39:51.195Z,78.71
2022-11-06T07:42:18.565Z,78.49
2022-11-06T07:44:57.703Z,78.17
2022-11-06T07:47:25.256Z,77.02
2022-11-06T07:49:52.586Z,77.02
2022-11-06T07:52:19.867Z,75.75
2022-11-06T07:54:47.151Z,75.05
2022-11-06T07:57:14.613Z,73.76
2022-11-06T07:59:42.859Z,72.69
2022-11-06T08:02:14.812Z,73.24
2022-11-06T08:04:42.319Z,73.54
2022-11-06T08:07:09.706Z,72.53
2022-11-06T08:09:37.118Z,73.17
2022-11-06T08:12:07.990Z,73.02
2022-11-06T08:14:41.012Z,71.41
2022-11-06T08:17:08.874Z,71.97
2022-11-06T08:19:36.367Z,71.93
2022-11-06T08:22:03.945Z,72.36
2022-11-06T08:24:31.281Z,70.29
2022-11-06T08:26:59.352Z,70.00
2022-11-06T08:29:26.714Z,69.45
2022-11-06T08:31:54.151Z,68.02
2022-11-06T08:34:21.555Z,67.90
2022-11-06T08:36:50.592Z,67.92
2022-11-06T08:39:17.932Z,67.87
2022-11-06T08:41:45.474Z,67.38
2022-11-06T08:44:12.913Z,66.83
2022-11-06T08:46:40.382Z,66.55
2022-11-06T08:49:07.743Z,63.55
2022-11-06T08:51:35.135Z,62.41
2022-11-06T08:54:02.637Z,63.74
2022-11-06T08:56:30.081Z,63.87
2022-11-06T08:58:57.534Z,63.56
2022-11-06T09:01:25.173Z,63.28
2022-11-06T09:03:52.736Z,63.01
2022-11-06T09:06:20.150Z,63.03
2022-11-06T09:08:49.752Z,62.48
2022-11-06T09:11:17.187Z,63.04
2022-11-06T09:13:46.248Z,62.52
2022-11-06T09:16:16.734Z,62.08
2022-11-06T09:18:44.422Z,60.81
2022-11-06T09:21:11.965Z,60.19
2022-11-06T09:23:39.438Z,60.04
2022-11-06T09:26:06.982Z,59.30
2022-11-06T09:28:34.374Z,58.96
2022-11-06T09:31:02.691Z,58.91
2022-11-06T09:33:30.086Z,59.43
2022-11-06T09:35:57.560Z,59.42
2022-11-06T09:38:25.125Z,59.89
2022-11-06T09:41:02.929Z,60.44
2022-11-06T09:44:04.669Z,61.18
2022-11-06T09:46:40.020Z,61.14
2022-11-06T09:49:26.673Z,61.97
2022-11-06T09:52:12.602Z,62.01
2022-11-06T09:54:40.282Z,60.93
2022-11-06T09:57:20.771Z,59.95
2022-11-06T09:59:49.428Z,58.15
2022-11-06T10:02:49.987Z,58.25
2022-11-06T10:05:20.241Z,57.09
2022-11-06T10:07:51.306Z,57.31
2022-11-06T10:10:21.456Z,56.70
2022-11-06T10:13:30.349Z,55.92
2022-11-06T10:16:13.914Z,57.57
2022-11-06T10:18:59.712Z,55.08
2022-11-06T10:21:45.298Z,54.60
2022-11-06T10:24:19.009Z,55.39
2022-11-06T10:26:52.417Z,54.23
2022-11-06T10:29:51.793Z,53.31
2022-11-06T10:32:45.718Z,52.57
2022-11-06T10:35:25.977Z,52.52
2022-11-06T10:38:06.843Z,53.37
2022-11-06T10:40:35.572Z,52.10
2022-11-06T10:43:32.341Z,53.09
2022-11-06T10:46:08.933Z,51.19
2022-11-06T10:48:44.218Z,52.49
2022-11-06T10:51:22.054Z,53.37
2022-11-06T10:54:25.020Z,53.02
2022-11-06T10:56:52.303Z,53.16
2022-11-06T10:59:20.166Z,52.81
2022-11-06T11:01:47.611Z,51.90
2022-11-06T11:04:15.043Z,52.41
2022-11-06T11:06:42.586Z,54.14
2022-11-06T11:09:30.211Z,53.65
2022-11-06T11:12:00.116Z,53.86
2022-11-06T11:14:31.399Z,52.65
2022-11-06T11:17:01.381Z,53.45
2022-11-06T11:19:44.216Z,51.73
2022-11-06T11:22:22.303Z,50.72
2022-11-06T11:25:04.970Z,51.35
2022-11-06T11:27:45.596Z,51.34
2022-11-06T11:30:26.593Z,52.54
2022-11-06T11:32:54.704Z,51.15
2022-11-06T11:35:28.816Z,50.71
2022-11-06T11:38:26.353Z,51.77
2022-11-06T11:41:07.895Z,51.87
2022-11-06T11:43:35.955Z,51.21
2022-11-06T11:46:15.452Z,50.80
2022-11-06T11:48:56.231Z,50.74
2022-11-06T11:51:26.183Z,49.90
2022-11-06T11:53:57.971Z,49.16
2022-11-06T11:56:50.064Z,48.61
2022-11-06T11:59:27.286Z,45.47
2022-11-06T12:01:57.555Z,42.88
2022-11-06T12:04:32.663Z,43.70
2022-11-06T12:07:07.459Z,44.45
2022-11-06T12:09:45.558Z,43.77
2022-11-06T12:12:39.092Z,44.92
2022-11-06T12:15:09.371Z,46.31
2022-11-06T12:17:40.478Z,48.27
2022-11-06T12:20:23.269Z,49.16
2022-11-06T12:22:52.545Z,50.80
2022-11-06T12:25:40.069Z,50.39
2022-11-06T12:28:15.588Z,50.01
2022-11-06T12:30:46.855Z,48.76
2022-11-06T12:33:27.387Z,48.77
2022-11-06T12:36:17.424Z,46.72
2022-11-06T12:39:02.064Z,46.89
2022-11-06T12:41:46.158Z,48.50
2022-11-06T12:44:16.786Z,48.96
2022-11-06T12:46:59.575Z,49.36
2022-11-06T12:49:57.291Z,49.11
2022-11-06T12:52:31.286Z,48.76
2022-11-06T12:55:22.946Z,48.46
2022-11-06T12:58:18.299Z,48.92
2022-11-06T13:00:48.840Z,49.16
2022-11-06T13:03:44.079Z,49.44
2022-11-06T13:06:50.174Z,47.72
2022-11-06T13:09:23.501Z,50.50
2022-11-06T13:12:03.558Z,51.04
2022-11-06T13:14:56.186Z,50.58
2022-11-06T13:17:36.423Z,52.09
2022-11-06T13:20:15.369Z,52.54
2022-11-06T13:23:04.433Z,53.79
2022-11-06T13:25:49.166Z,55.13
2022-11-06T13:28:16.687Z,56.18
2022-11-06T13:30:45.185Z,57.23
2022-11-06T13:33:23.905Z,57.46
2022-11-06T13:35:51.724Z,57.35
2022-11-06T13:38:27.601Z,56.26
2022-11-06T13:41:08.212Z,56.48
2022-11-06T13:43:46.320Z,55.11
2022-11-06T13:46:48.474Z,53.72
2022-11-06T13:49:18.597Z,53.08
2022-11-06T13:51:56.761Z,52.55
2022-11-06T13:54:34.268Z,53.59
2022-11-06T13:57:33.646Z,52.59
2022-11-06T14:00:18.318Z,51.99
2022-11-06T14:03:16.394Z,52.31
2022-11-06T14:06:11.014Z,51.05
2022-11-06T14:08:47.080Z,51.76
2022-11-06T14:11:20.756Z,51.83
2022-11-06T14:14:26.520Z,52.44
2022-11-06T14:17:11.201Z,53.36
2022-11-06T14:21:47.176Z,53.47
2022-11-06T14:24:27.543Z,53.10
2022-11-06T14:26:55.228Z,53.49
2022-11-06T14:29:28.339Z,52.57
2022-11-06T14:32:13.280Z,52.78
2022-11-06T14:34:42.808Z,52.13
2022-11-06T14:37:19.054Z,53.46
2022-11-06T14:39:52.596Z,54.43
2022-11-06T14:42:32.977Z,56.59
2022-11-06T14:45:10.274Z,57.14
2022-11-06T14:47:40.408Z,58.13
2022-11-06T14:50:19.840Z,59.18
2022-11-06T14:52:51.862Z,59.11
2022-11-06T14:55:36.562Z,59.32
2022-11-06T14:58:12.970Z,59.58
2022-11-06T15:00:55.519Z,59.13
2022-11-06T15:03:33.213Z,59.34
2022-11-06T15:06:19.181Z,59.65
2022-11-06T15:08:49.131Z,59.84
2022-11-06T15:11:46.645Z,60.53
2022-11-06T15:14:15.244Z,60.83
2022-11-06T15:16:43.632Z,60.82
2022-11-06T15:19:38.619Z,60.80
2022-11-06T15:22:17.156Z,61.36
2022-11-06T15:25:20.705Z,61.90
2022-11-06T15:28:06.007Z,62.07
2022-11-06T15:30:42.685Z,62.51
2022-11-06T15:33:17.216Z,63.16
2022-11-06T15:35:47.991Z,62.87
2022-11-06T15:38:21.834Z,63.23
2022-11-06T15:40:54.170Z,63.56
2022-11-06T15:43:33.532Z,64.20
2022-11-06T15:46:08.133Z,64.60
2022-11-06T15:48:35.747Z,64.70
2022-11-06T15:51:03.309Z,65.25
2022-11-06T15:53:31.308Z,65.47
2022-11-06T15:56:05.847Z,65.36
2022-11-06T15:58:36.049Z,65.59
2022-11-06T16:01:06.108Z,65.82
2022-11-06T16:03:49.062Z,65.75
2022-11-06T16:06:17.042Z,66.13
2022-11-06T16:08:45.834Z,66.61
2022-11-06T16:11:18.360Z,67.00
2022-11-06T16:13:47.051Z,66.84
2022-11-06T16:16:38.192Z,66.91
2022-11-06T16:19:08.546Z,67.43
2022-11-06T16:21:37.071Z,67.29
2022-11-06T16:24:13.053Z,67.83
2022-11-06T16:26:47.245Z,67.52
2022-11-06T16:29:24.464Z,67.07
2022-11-06T16:32:08.224Z,67.51
2022-11-06T16:34:46.034Z,68.01
2022-11-06T16:37:16.421Z,67.77
2022-11-06T16:39:50.252Z,68.19
2022-11-06T16:42:28.614Z,68.64
2022-11-06T16:45:19.807Z,68.46
2022-11-06T16:48:10.110Z,68.73
2022-11-06T16:50:51.864Z,68.69
2022-11-06T16:53:25.726Z,68.75
2022-11-06T16:55:58.800Z,69.27
2022-11-06T16:58:28.382Z,69.68
2022-11-06T17:00:59.233Z,70.03
2022-11-06T17:03:29.654Z,70.27
2022-11-06T17:05:59.070Z,70.83
2022-11-06T17:08:38.726Z,71.70
2022-11-06T17:11:21.948Z,71.63
2022-11-06T17:13:50.857Z,71.89
2022-11-06T17:16:23.998Z,71.73
2022-11-06T17:18:52.144Z,71.87
2022-11-06T17:21:25.071Z,72.03
2022-11-06T17:23:53.248Z,72.60
2022-11-06T17:26:27.022Z,73.04
2022-11-06T17:28:58.139Z,72.41
2022-11-06T17:31:26.391Z,73.36
2022-11-06T17:33:54.146Z,73.45
2022-11-06T17:36:25.496Z,72.34
2022-11-06T17:38:53.817Z,72.85
2022-11-06T17:41:32.720Z,72.69
2022-11-06T17:44:08.995Z,72.44
2022-11-06T17:46:38.688Z,72.33
2022-11-06T17:49:06.562Z,72.22
2022-11-06T17:51:53.326Z,72.41
2022-11-06T17:54:24.006Z,72.82
2022-11-06T17:56:52.808Z,72.70
2022-11-06T17:59:20.960Z,72.50
2022-11-06T18:01:50.797Z,73.82
2022-11-06T18:04:19.638Z,74.08
2022-11-06T18:06:49.367Z,74.88
2022-11-06T18:09:16.728Z,74.99
2022-11-06T18:11:44.491Z,74.16
2022-11-06T18:14:12.682Z,74.50
2022-11-06T18:16:43.737Z,75.08
2022-11-06T18:19:14.615Z,75.02
2022-11-06T18:21:41.917Z,75.46
2022-11-06T18:24:09.399Z,75.96
2022-11-06T18:26:37.610Z,76.42
2022-11-06T18:29:08.787Z,76.34
2022-11-06T18:31:36.543Z,76.33
2022-11-06T18:34:05.130Z,76.19
2022-11-06T18:36:35.243Z,76.44
2022-11-06T18:39:03.706Z,76.15
2022-11-06T18:41:31.124Z,76.90
2022-11-06T18:43:59.658Z,77.23
2022-11-06T18:46:28.255Z,77.04
2022-11-06T18:48:56.467Z,76.96
2022-11-06T18:51:34.376Z,77.35
2022-11-06T18:54:05.664Z,77.81
2022-11-06T18:56:36.319Z,78.63
2022-11-06T18:59:06.384Z,77.63
2022-11-06T19:01:35.639Z,77.53
2022-11-06T19:04:04.580Z,77.56
2022-11-06T19:06:35.500Z,78.00
2022-11-06T19:09:03.018Z,78.56
2022-11-06T19:11:30.473Z,78.58
2022-11-06T19:13:57.986Z,79.24
2022-11-06T19:16:25.581Z,79.60
2022-11-06T19:21:30.874Z,80.53
2022-11-06T19:24:03.819Z,81.70
2022-11-06T19:26:32.631Z,80.95
2022-11-06T19:29:01.059Z,81.62
2022-11-06T19:31:30.929Z,82.32
2022-11-06T19:33:59.774Z,82.89
2022-11-06T19:36:29.164Z,83.51
2022-11-06T19:38:59.763Z,84.00
2022-11-06T19:41:29.076Z,84.11
2022-11-06T19:43:57.127Z,83.93
2022-11-06T19:46:28.523Z,84.29
2022-11-06T19:49:01.609Z,84.78
2022-11-06T19:51:29.246Z,85.18
2022-11-06T19:53:57.098Z,85.66
2022-11-06T19:56:24.712Z,86.04
2022-11-06T19:58:52.738Z,85.82
2022-11-06T20:01:20.998Z,86.49
2022-11-06T20:03:48.607Z,86.62
2022-11-06T20:06:16.533Z,85.67
2022-11-06T20:08:47.216Z,84.89
2022-11-06T20:11:15.452Z,85.11
2022-11-06T20:13:44.377Z,85.43
2022-11-06T20:16:14.935Z,85.57
2022-11-06T20:18:42.308Z,86.44
2022-11-06T20:21:12.088Z,87.01
2022-11-06T20:23:40.098Z,87.30
2022-11-06T20:26:07.639Z,87.88
2022-11-06T20:28:35.863Z,87.89
2022-11-06T20:31:11.950Z,87.44
2022-11-06T20:33:39.860Z,87.62
2022-11-06T20:36:16.489Z,88.60
2022-11-06T20:38:45.067Z,89.13
2022-11-06T20:41:14.727Z,89.48
2022-11-06T20:43:43.135Z,89.43
2022-11-06T20:46:11.994Z,88.18
2022-11-06T20:48:39.555Z,88.26
2022-11-06T20:51:09.384Z,88.86
2022-11-06T20:53:36.769Z,89.47
2022-11-06T20:56:06.790Z,89.96
2022-11-06T20:58:34.839Z,89.98
2022-11-06T21:01:06.923Z,90.58
2022-11-06T21:03:36.412Z,90.85
2022-11-06T21:06:04.575Z,90.21
2022-11-06T21:08:37.159Z,90.15
2022-11-06T21:11:13.507Z,90.00
2022-11-06T21:13:41.678Z,89.26
2022-11-06T21:16:17.745Z,89.50
2022-11-06T21:18:46.146Z,90.35
2022-11-06T21:21:17.668Z,90.75
2022-11-06T21:23:44.974Z,88.78
2022-11-06T21:26:14.894Z,88.15
2022-11-06T21:28:43.784Z,88.56
2022-11-06T21:31:25.655Z,86.63
2022-11-06T21:33:55.019Z,86.00
2022-11-06T21:36:37.509Z,86.36
2022-11-06T21:39:08.406Z,85.79
2022-11-06T21:41:36.425Z,85.81
2022-11-06T21:44:05.388Z,86.62
2022-11-06T21:46:33.167Z,87.11
2022-11-06T21:49:00.742Z,87.92
2022-11-06T21:51:31.254Z,87.69
2022-11-06T21:54:17.564Z,87.57
2022-11-06T21:56:50.380Z,87.10
2022-11-06T21:59:20.128Z,86.98
2022-11-06T22:01:47.720Z,87.15
2022-11-06T22:04:15.444Z,86.95
2022-11-06T22:06:43.748Z,86.34
2022-11-06T22:09:13.189Z,86.53
2022-11-06T22:11:43.257Z,86.83
2022-11-06T22:14:17.572Z,86.45
2022-11-06T22:16:47.332Z,86.47
2022-11-06T22:19:16.516Z,86.76
2022-11-06T22:21:44.194Z,86.91
2022-11-06T22:24:13.467Z,87.08
2022-11-06T22:26:41.086Z,88.63
2022-11-06T22:29:11.337Z,89.25
2022-11-06T22:31:38.855Z,90.83
2022-11-06T22:34:06.504Z,91.07
2022-11-06T22:36:33.881Z,91.09
2022-11-06T22:39:08.066Z,91.59
2022-11-06T22:41:35.754Z,92.57
2022-11-06T22:44:03.198Z,93.65
2022-11-06T22:46:31.109Z,93.67
2022-11-06T22:48:58.690Z,93.28
2022-11-06T22:51:31.551Z,93.78
2022-11-06T22:54:00.260Z,93.58
2022-11-06T22:56:29.816Z,92.81
2022-11-06T22:58:59.371Z,92.98
2022-11-06T23:01:29.456Z,92.60
2022-11-06T23:04:00.961Z,92.39
2022-11-06T23:06:28.689Z,93.08
2022-11-06T23:08:56.018Z,94.10
2022-11-06T23:11:25.275Z,93.85
2022-11-06T23:13:53.534Z,93.86
2022-11-06T23:16:43.964Z,94.04
2022-11-06T23:19:14.332Z,94.38
2022-11-06T23:21:42.287Z,94.69
2022-11-06T23:24:10.558Z,95.33
2022-11-06T23:26:38.205Z,95.73
2022-11-06T23:29:05.638Z,95.63
2022-11-06T23:31:32.928Z,95.68
2022-11-06T23:34:00.342Z,95.94
2022-11-06T23:36:27.617Z,95.90
2022-11-06T23:38:55.142Z,96.56
2022-11-06T23:41:41.140Z,97.10
2022-11-06T23:44:28.255Z,97.44
2022-11-06T23:46:55.412Z,97.11
2022-11-06T23:49:23.661Z,96.52
2022-11-06T23:51:51.029Z,96.52
2022-11-06T23:54:18.818Z,96.69
2022-11-06T23:56:46.155Z,97.24
2022-11-06T23:59:13.589Z,97.00
